createdAt,value
2022-11-20T00:02:16.329Z,79.29
2022-11-20T00:04:42.822Z,79.04
2022-11-20T00:07:09.487Z,79.35
2022-11-20T00:09:36.007Z,79.31
2022-11-20T00:12:02.545Z,78.98
2022-11-20T00:14:29.162Z,79.17
2022-11-20T00:16:55.696Z,78.40
2022-11-20T00:19:22.589Z,78.09
2022-11-20T00:21:52.350Z,78.29
2022-11-20T00:24:19.748Z,78.90
2022-11-20T00:26:46.270Z,79.04
2022-11-20T00:29:12.857Z,78.62
2022-11-20T00:31:39.463Z,78.27
2022-11-20T00:34:06.003Z,79.02
2022-11-20T00:36:33.629Z,78.93
2022-11-20T00:39:00.500Z,78.26
2022-11-20T00:41:27.963Z,78.72
2022-11-20T00:43:54.867Z,78.52
2022-11-20T00:46:26.670Z,78.65
2022-11-20T00:48:53.220Z,78.68
2022-11-20T00:51:20.587Z,78.88
2022-11-20T00:53:47.394Z,78.70
2022-11-20T00:56:14.841Z,78.69
2022-11-20T00:58:42.145Z,78.36
2022-11-20T01:01:12.933Z,78.64
2022-11-20T01:03:43.030Z,78.39
2022-11-20T01:06:28.954Z,78.55
2022-11-20T01:08:56.611Z,78.51
2022-11-20T01:11:27.453Z,78.67
2022-11-20T01:13:54.265Z,78.90
2022-11-20T01:16:28.023Z,78.63
2022-11-20T01:18:55.353Z,78.58
2022-11-20T01:21:23.130Z,78.79
2022-11-20T01:23:50.436Z,78.85
2022-11-20T01:26:18.431Z,78.90
2022-11-20T01:28:45.078Z,79.03
2022-11-20T01:31:14.617Z,79.08
2022-11-20T01:33:42.177Z,79.48
2022-11-20T01:36:09.176Z,79.77
2022-11-20T01:38:36.317Z,79.38
2022-11-20T01:41:02.982Z,79.29
2022-11-20T01:43:29.625Z,79.18
2022-11-20T01:45:59.224Z,79.56
2022-11-20T01:48:26.686Z,79.54
2022-11-20T01:50:53.524Z,78.96
2022-11-20T01:53:20.514Z,78.67
2022-11-20T01:55:48.739Z,79.08
2022-11-20T01:58:15.211Z,78.71
2022-11-20T02:00:41.971Z,78.34
2022-11-20T02:03:10.348Z,77.73
2022-11-20T02:05:41.291Z,78.47
2022-11-20T02:08:08.040Z,79.17
2022-11-20T02:10:34.612Z,78.55
2022-11-20T02:13:19.991Z,78.31
2022-11-20T02:15:46.673Z,78.15
2022-11-20T02:18:13.203Z,78.55
2022-11-20T02:20:39.717Z,78.02
2022-11-20T02:23:09.126Z,77.78
2022-11-20T02:25:35.736Z,78.04
2022-11-20T02:28:02.737Z,78.13
2022-11-20T02:30:29.293Z,78.74
2022-11-20T02:32:55.799Z,78.67
2022-11-20T02:35:22.313Z,78.42
2022-11-20T02:37:49.944Z,77.21
2022-11-20T02:40:16.487Z,76.91
2022-11-20T02:42:42.980Z,77.77
2022-11-20T02:45:09.783Z,78.35
2022-11-20T02:47:36.880Z,78.92
2022-11-20T02:50:04.071Z,78.91
2022-11-20T02:52:30.561Z,78.90
2022-11-20T02:54:57.142Z,78.53
2022-11-20T02:57:23.674Z,78.67
2022-11-20T02:59:53.665Z,78.55
2022-11-20T03:02:20.365Z,78.57
2022-11-20T03:04:46.999Z,78.28
2022-11-20T03:07:13.607Z,78.52
2022-11-20T03:09:40.218Z,78.88
2022-11-20T03:12:06.789Z,78.58
2022-11-20T03:14:33.312Z,78.06
2022-11-20T03:16:59.783Z,77.97
2022-11-20T03:19:26.802Z,78.17
2022-11-20T03:21:53.458Z,78.24
2022-11-20T03:24:20.261Z,78.00
2022-11-20T03:26:46.786Z,78.09
2022-11-20T03:29:13.360Z,78.60
2022-11-20T03:31:41.535Z,78.29
2022-11-20T03:34:08.593Z,77.91
2022-11-20T03:36:35.241Z,78.07
2022-11-20T03:39:01.747Z,77.91
2022-11-20T03:41:29.302Z,77.77
2022-11-20T03:43:56.832Z,77.40
2022-11-20T03:46:23.527Z,77.70
2022-11-20T03:48:51.962Z,77.42
2022-11-20T03:51:20.083Z,77.94
2022-11-20T03:53:47.147Z,78.00
2022-11-20T03:56:14.264Z,77.56
2022-11-20T03:58:41.466Z,78.31
2022-11-20T04:01:11.827Z,78.08
2022-11-20T04:03:38.697Z,77.76
2022-11-20T04:06:34.428Z,78.13
2022-11-20T04:09:01.216Z,78.27
2022-11-20T04:11:28.788Z,77.79
2022-11-20T04:13:56.755Z,77.38
2022-11-20T04:16:23.632Z,77.45
2022-11-20T04:18:55.054Z,76.69
2022-11-20T04:21:21.995Z,76.46
2022-11-20T04:23:48.784Z,77.08
2022-11-20T04:26:15.302Z,76.95
2022-11-20T04:28:42.820Z,76.52
2022-11-20T04:31:10.225Z,77.02
2022-11-20T04:33:37.529Z,76.27
2022-11-20T04:36:04.794Z,76.93
2022-11-20T04:38:31.436Z,76.16
2022-11-20T04:40:59.335Z,76.60
2022-11-20T04:43:26.009Z,76.93
2022-11-20T04:45:53.807Z,77.13
2022-11-20T04:48:20.505Z,76.85
2022-11-20T04:50:47.004Z,77.00
2022-11-20T04:53:13.537Z,76.37
2022-11-20T04:55:40.051Z,77.12
2022-11-20T04:58:06.869Z,75.90
2022-11-20T05:00:34.331Z,76.41
2022-11-20T05:03:01.023Z,76.10
2022-11-20T05:05:27.526Z,76.88
2022-11-20T05:07:56.682Z,76.76
2022-11-20T05:10:23.193Z,77.23
2022-11-20T05:12:49.699Z,75.95
2022-11-20T05:15:16.243Z,76.13
2022-11-20T05:17:47.803Z,76.48
2022-11-20T05:20:14.328Z,76.94
2022-11-20T05:22:40.882Z,76.89
2022-11-20T05:25:07.564Z,76.87
2022-11-20T05:27:34.068Z,75.38
2022-11-20T05:30:00.607Z,76.20
2022-11-20T05:32:27.616Z,76.27
2022-11-20T05:34:54.145Z,76.37
2022-11-20T05:37:20.690Z,76.49
2022-11-20T05:39:47.981Z,76.53
2022-11-20T05:42:33.269Z,76.25
2022-11-20T05:45:00.166Z,76.38
2022-11-20T05:47:27.355Z,76.49
2022-11-20T05:49:55.668Z,75.90
2022-11-20T05:52:22.254Z,76.29
2022-11-20T05:54:48.897Z,76.61
2022-11-20T05:57:15.423Z,76.85
2022-11-20T05:59:42.103Z,76.31
2022-11-20T06:02:08.582Z,76.03
2022-11-20T06:04:35.054Z,76.50
2022-11-20T06:07:01.649Z,76.02
2022-11-20T06:09:28.221Z,76.38
2022-11-20T06:11:54.758Z,76.23
2022-11-20T06:14:21.372Z,75.97
2022-11-20T06:16:47.902Z,76.53
2022-11-20T06:19:14.913Z,76.45
2022-11-20T06:21:41.982Z,76.43
2022-11-20T06:24:09.895Z,76.36
2022-11-20T06:26:36.492Z,75.31
2022-11-20T06:29:03.031Z,76.32
2022-11-20T06:31:29.746Z,76.08
2022-11-20T06:33:56.374Z,75.87
2022-11-20T06:36:23.429Z,76.55
2022-11-20T06:38:50.161Z,76.59
2022-11-20T06:41:18.189Z,76.73
2022-11-20T06:43:44.849Z,76.11
2022-11-20T06:46:11.878Z,75.94
2022-11-20T06:48:38.410Z,76.27
2022-11-20T06:51:05.775Z,75.97
2022-11-20T06:53:32.321Z,75.68
2022-11-20T06:55:58.935Z,75.46
2022-11-20T06:58:27.586Z,75.77
2022-11-20T07:00:54.204Z,75.87
2022-11-20T07:03:20.837Z,76.02
2022-11-20T07:05:47.376Z,76.42
2022-11-20T07:08:13.927Z,76.63
2022-11-20T07:10:40.490Z,76.31
2022-11-20T07:13:07.995Z,75.64
2022-11-20T07:15:34.642Z,75.72
2022-11-20T07:18:01.343Z,76.05
2022-11-20T07:20:28.654Z,76.49
2022-11-20T07:22:58.467Z,76.44
2022-11-20T07:25:25.461Z,76.48
2022-11-20T07:27:52.119Z,76.52
2022-11-20T07:30:18.643Z,76.56
2022-11-20T07:32:48.862Z,76.40
2022-11-20T07:35:15.356Z,76.38
2022-11-20T07:37:41.849Z,76.37
2022-11-20T07:40:08.499Z,76.23
2022-11-20T07:42:35.042Z,76.33
2022-11-20T07:45:02.029Z,74.81
2022-11-20T07:47:29.377Z,74.02
2022-11-20T07:49:55.892Z,74.77
2022-11-20T07:52:22.400Z,75.62
2022-11-20T07:54:48.887Z,74.87
2022-11-20T07:57:15.385Z,75.53
2022-11-20T07:59:42.441Z,75.03
2022-11-20T08:02:11.114Z,75.40
2022-11-20T08:04:37.597Z,75.30
2022-11-20T08:07:04.945Z,75.61
2022-11-20T08:09:31.492Z,74.05
2022-11-20T08:12:16.600Z,75.06
2022-11-20T08:14:43.295Z,75.42
2022-11-20T08:17:13.420Z,74.93
2022-11-20T08:19:43.042Z,74.80
2022-11-20T08:22:09.857Z,75.55
2022-11-20T08:24:36.922Z,75.95
2022-11-20T08:27:03.460Z,75.64
2022-11-20T08:29:29.967Z,75.47
2022-11-20T08:31:56.616Z,75.98
2022-11-20T08:34:23.260Z,75.87
2022-11-20T08:36:49.879Z,76.14
2022-11-20T08:39:16.574Z,75.99
2022-11-20T08:41:43.477Z,75.66
2022-11-20T08:44:10.058Z,75.86
2022-11-20T08:46:38.802Z,74.61
2022-11-20T08:49:06.138Z,73.14
2022-11-20T08:51:32.837Z,74.84
2022-11-20T08:54:00.270Z,75.08
2022-11-20T08:56:26.999Z,74.71
2022-11-20T09:01:45.106Z,75.98
2022-11-20T09:04:12.885Z,75.27
2022-11-20T09:06:42.491Z,74.89
2022-11-20T09:09:09.007Z,74.30
2022-11-20T09:11:36.041Z,73.52
2022-11-20T09:14:03.951Z,74.82
2022-11-20T09:16:32.976Z,75.58
2022-11-20T09:19:28.196Z,75.78
2022-11-20T09:21:46.558Z,76.04
2022-11-20T09:24:13.847Z,75.97
2022-11-20T09:26:40.632Z,75.79
2022-11-20T09:29:07.203Z,76.17
2022-11-20T09:31:33.681Z,75.91
2022-11-20T09:34:00.603Z,75.86
2022-11-20T09:36:27.460Z,76.25
2022-11-20T09:38:55.117Z,76.03
2022-11-20T09:41:40.842Z,76.18
2022-11-20T09:44:20.216Z,76.00
2022-11-20T09:46:54.676Z,76.22
2022-11-20T09:49:29.134Z,76.34
2022-11-20T09:51:59.745Z,75.28
2022-11-20T09:54:31.279Z,76.00
2022-11-20T09:57:00.592Z,75.63
2022-11-20T09:59:29.667Z,76.00
2022-11-20T10:01:56.217Z,75.44
2022-11-20T10:04:22.742Z,74.86
2022-11-20T10:07:10.564Z,75.50
2022-11-20T10:09:44.088Z,74.95
2022-11-20T10:12:10.646Z,75.79
2022-11-20T10:14:37.190Z,75.80
2022-11-20T10:17:07.609Z,76.31
2022-11-20T10:19:37.003Z,76.79
2022-11-20T10:22:22.990Z,76.54
2022-11-20T10:24:49.448Z,76.05
2022-11-20T10:27:24.880Z,76.56
2022-11-20T10:30:00.992Z,76.40
2022-11-20T10:32:29.936Z,76.59
2022-11-20T10:34:59.275Z,77.80
2022-11-20T10:37:26.419Z,78.08
2022-11-20T10:40:02.829Z,78.10
2022-11-20T10:42:38.714Z,79.04
2022-11-20T10:45:25.506Z,78.53
2022-11-20T10:47:52.408Z,78.75
2022-11-20T10:50:22.416Z,78.79
2022-11-20T10:52:58.578Z,78.94
2022-11-20T10:55:33.458Z,78.72
2022-11-20T10:58:15.150Z,78.67
2022-11-20T11:00:41.765Z,79.02
2022-11-20T11:03:35.305Z,78.88
2022-11-20T11:06:08.288Z,78.68
2022-11-20T11:08:40.410Z,79.33
2022-11-20T11:11:21.706Z,79.65
2022-11-20T11:13:48.291Z,79.17
2022-11-20T11:16:26.329Z,78.98
2022-11-20T11:18:53.184Z,79.44
2022-11-20T11:21:26.021Z,79.25
2022-11-20T11:24:13.380Z,78.19
2022-11-20T11:26:53.345Z,78.44
2022-11-20T11:29:20.335Z,77.57
2022-11-20T11:31:47.339Z,77.40
2022-11-20T11:34:14.647Z,78.08
2022-11-20T11:36:41.481Z,77.23
2022-11-20T11:39:12.357Z,77.75
2022-11-20T11:41:38.987Z,77.18
2022-11-20T11:44:34.944Z,77.49
2022-11-20T11:47:01.514Z,77.44
2022-11-20T11:49:28.307Z,76.98
2022-11-20T11:52:10.175Z,76.93
2022-11-20T11:54:39.089Z,77.05
2022-11-20T11:57:34.990Z,76.87
2022-11-20T12:00:10.704Z,76.33
2022-11-20T12:02:50.952Z,76.10
2022-11-20T12:05:29.557Z,75.11
2022-11-20T12:08:15.165Z,74.66
2022-11-20T12:11:08.258Z,75.16
2022-11-20T12:13:34.918Z,74.92
2022-11-20T12:16:02.131Z,74.49
2022-11-20T12:18:29.455Z,74.21
2022-11-20T12:20:56.378Z,73.92
2022-11-20T12:23:26.750Z,73.33
2022-11-20T12:25:53.796Z,71.89
2022-11-20T12:28:34.639Z,73.12
2022-11-20T12:31:20.014Z,72.91
2022-11-20T12:33:49.626Z,72.36
2022-11-20T12:36:34.818Z,72.13
2022-11-20T12:39:05.386Z,72.73
2022-11-20T12:42:09.837Z,72.07
2022-11-20T12:44:55.155Z,71.87
2022-11-20T12:47:35.746Z,71.47
2022-11-20T12:50:08.495Z,70.25
2022-11-20T12:52:39.395Z,69.37
2022-11-20T12:55:05.925Z,69.36
2022-11-20T12:57:45.081Z,69.52
2022-11-20T13:00:19.827Z,69.19
2022-11-20T13:02:49.377Z,68.49
2022-11-20T13:05:19.175Z,69.07
2022-11-20T13:07:46.324Z,69.54
2022-11-20T13:10:24.833Z,68.90
2022-11-20T13:12:54.732Z,68.47
2022-11-20T13:15:21.304Z,69.37
2022-11-20T13:17:53.149Z,69.89
2022-11-20T13:20:19.825Z,69.78
2022-11-20T13:22:50.031Z,68.74
2022-11-20T13:25:26.805Z,67.55
2022-11-20T13:27:53.841Z,68.98
2022-11-20T13:30:24.019Z,66.76
2022-11-20T13:32:57.481Z,68.13
2022-11-20T13:35:25.600Z,68.87
2022-11-20T13:38:00.769Z,68.56
2022-11-20T13:40:27.435Z,67.88
2022-11-20T13:42:58.803Z,68.63
2022-11-20T13:45:29.633Z,66.46
2022-11-20T13:47:56.612Z,67.03
2022-11-20T13:50:29.001Z,66.00
2022-11-20T13:53:13.897Z,67.31
2022-11-20T13:55:46.547Z,67.24
2022-11-20T13:58:22.297Z,67.32
2022-11-20T14:00:52.810Z,67.84
2022-11-20T14:03:37.925Z,69.02
2022-11-20T14:06:14.772Z,67.17
2022-11-20T14:08:44.191Z,67.59
2022-11-20T14:11:17.223Z,67.03
2022-11-20T14:14:10.826Z,68.74
2022-11-20T14:16:37.707Z,68.30
2022-11-20T14:19:22.461Z,66.33
2022-11-20T14:21:49.978Z,66.70
2022-11-20T14:24:20.578Z,68.56
2022-11-20T14:26:47.326Z,67.90
2022-11-20T14:29:17.655Z,69.44
2022-11-20T14:31:45.642Z,69.05
2022-11-20T14:34:16.064Z,68.94
2022-11-20T14:36:42.757Z,69.51
2022-11-20T14:39:11.113Z,69.49
2022-11-20T14:41:37.641Z,68.96
2022-11-20T14:44:04.289Z,69.96
2022-11-20T14:46:31.100Z,69.37
2022-11-20T14:48:58.143Z,70.68
2022-11-20T14:51:42.789Z,70.30
2022-11-20T14:54:12.811Z,68.99
2022-11-20T14:56:39.350Z,67.25
2022-11-20T14:59:05.948Z,70.47
2022-11-20T15:01:33.571Z,70.79
2022-11-20T15:04:01.136Z,72.10
2022-11-20T15:06:27.853Z,71.29
2022-11-20T15:08:54.382Z,71.81
2022-11-20T15:11:21.997Z,70.91
2022-11-20T15:13:48.843Z,71.61
2022-11-20T15:16:24.785Z,70.53
2022-11-20T15:18:51.409Z,70.63
2022-11-20T15:21:19.079Z,71.62
2022-11-20T15:23:45.604Z,72.07
2022-11-20T15:26:18.394Z,72.88
2022-11-20T15:28:51.189Z,73.22
2022-11-20T15:31:19.086Z,73.25
2022-11-20T15:33:45.793Z,73.51
2022-11-20T15:36:12.415Z,73.34
2022-11-20T15:38:38.950Z,72.85
2022-11-20T15:41:05.910Z,72.71
2022-11-20T15:43:32.461Z,72.02
2022-11-20T15:46:03.448Z,71.95
2022-11-20T15:48:30.955Z,72.47
2022-11-20T15:50:57.478Z,72.17
2022-11-20T15:53:23.983Z,72.31
2022-11-20T15:55:56.020Z,72.42
2022-11-20T15:58:24.672Z,72.83
2022-11-20T16:00:51.579Z,72.51
2022-11-20T16:03:18.149Z,73.38
2022-11-20T16:05:45.037Z,72.88
2022-11-20T16:08:12.161Z,72.63
2022-11-20T16:10:38.929Z,72.93
2022-11-20T16:13:24.210Z,73.06
2022-11-20T16:15:54.512Z,73.39
2022-11-20T16:18:21.673Z,73.76
2022-11-20T16:20:49.924Z,74.13
2022-11-20T16:23:17.159Z,73.46
2022-11-20T16:25:44.143Z,73.64
2022-11-20T16:28:15.982Z,73.37
2022-11-20T16:30:45.796Z,73.75
2022-11-20T16:33:13.272Z,73.43
2022-11-20T16:35:40.010Z,73.60
2022-11-20T16:38:06.784Z,73.53
2022-11-20T16:40:33.349Z,73.32
2022-11-20T16:43:07.368Z,73.69
2022-11-20T16:45:34.241Z,73.50
2022-11-20T16:48:00.785Z,73.71
2022-11-20T16:50:27.256Z,73.74
2022-11-20T16:52:53.746Z,74.17
2022-11-20T16:55:20.222Z,74.17
2022-11-20T16:57:46.745Z,73.77
2022-11-20T17:00:13.652Z,74.33
2022-11-20T17:02:40.462Z,74.56
2022-11-20T17:05:07.121Z,73.98
2022-11-20T17:07:33.771Z,74.60
2022-11-20T17:10:01.159Z,74.39
2022-11-20T17:12:27.798Z,74.40
2022-11-20T17:14:54.421Z,74.52
2022-11-20T17:17:20.993Z,73.93
2022-11-20T17:19:47.673Z,74.05
2022-11-20T17:22:14.160Z,73.82
2022-11-20T17:24:40.762Z,73.63
2022-11-20T17:27:07.728Z,74.22
2022-11-20T17:29:39.172Z,74.34
2022-11-20T17:32:08.520Z,74.14
2022-11-20T17:34:35.099Z,74.06
2022-11-20T17:37:02.403Z,73.87
2022-11-20T17:39:28.945Z,73.64
2022-11-20T17:42:14.074Z,73.62
2022-11-20T17:44:42.679Z,74.20
2022-11-20T17:47:09.233Z,74.13
2022-11-20T17:49:35.869Z,73.51
2022-11-20T17:52:03.557Z,73.24
2022-11-20T17:54:30.049Z,73.77
2022-11-20T17:57:15.173Z,73.62
2022-11-20T17:59:41.687Z,73.75
2022-11-20T18:02:09.923Z,73.84
2022-11-20T18:04:37.471Z,73.09
2022-11-20T18:07:04.028Z,73.44
2022-11-20T18:09:30.723Z,73.94
2022-11-20T18:11:57.331Z,73.64
2022-11-20T18:14:29.670Z,73.42
2022-11-20T18:16:57.427Z,74.01
2022-11-20T18:19:27.672Z,73.90
2022-11-20T18:21:58.377Z,73.71
2022-11-20T18:24:25.176Z,73.80
2022-11-20T18:26:51.995Z,73.59
2022-11-20T18:29:18.623Z,73.33
2022-11-20T18:31:45.194Z,72.93
2022-11-20T18:34:14.127Z,73.47
2022-11-20T18:36:41.539Z,73.35
2022-11-20T18:39:09.569Z,73.40
2022-11-20T18:41:54.692Z,73.53
2022-11-20T18:44:40.988Z,72.16
2022-11-20T18:47:14.079Z,72.79
2022-11-20T18:49:51.108Z,73.09
2022-11-20T18:52:21.603Z,73.66
2022-11-20T18:54:48.199Z,73.79
2022-11-20T18:57:16.038Z,73.95
2022-11-20T18:59:43.238Z,74.75
2022-11-20T19:02:10.522Z,75.46
2022-11-20T19:04:37.708Z,75.72
2022-11-20T19:07:04.316Z,75.65
2022-11-20T19:09:31.275Z,75.09
2022-11-20T19:11:57.772Z,76.13
2022-11-20T19:14:25.636Z,75.47
2022-11-20T19:16:52.209Z,76.46
2022-11-20T19:19:18.728Z,75.55
2022-11-20T19:21:45.231Z,76.21
2022-11-20T19:24:11.739Z,77.01
2022-11-20T19:26:38.340Z,77.42
2022-11-20T19:29:05.716Z,76.42
2022-11-20T19:31:32.381Z,75.85
2022-11-20T19:34:00.191Z,77.02
2022-11-20T19:36:27.634Z,77.51
2022-11-20T19:38:55.140Z,76.56
2022-11-20T19:41:28.934Z,77.73
2022-11-20T19:44:02.610Z,77.62
2022-11-20T19:46:30.411Z,77.67
2022-11-20T19:48:57.436Z,77.38
2022-11-20T19:51:30.070Z,77.74
2022-11-20T19:54:01.184Z,77.29
2022-11-20T19:56:28.797Z,76.32
2022-11-20T19:58:56.646Z,77.05
2022-11-20T20:01:24.360Z,77.51
2022-11-20T20:03:51.382Z,76.95
2022-11-20T20:06:19.236Z,76.77
2022-11-20T20:08:45.886Z,76.30
2022-11-20T20:11:13.933Z,77.01
2022-11-20T20:13:40.529Z,77.08
2022-11-20T20:16:17.166Z,75.85
2022-11-20T20:18:43.729Z,76.51
2022-11-20T20:21:11.318Z,73.72
2022-11-20T20:23:38.076Z,76.09
2022-11-20T20:26:05.181Z,76.43
2022-11-20T20:28:31.743Z,75.94
2022-11-20T20:30:58.523Z,75.46
2022-11-20T20:33:25.102Z,75.79
2022-11-20T20:35:51.640Z,75.38
2022-11-20T20:38:18.177Z,75.59
2022-11-20T20:40:52.024Z,76.04
2022-11-20T20:43:18.539Z,76.16
2022-11-20T20:45:48.626Z,75.33
2022-11-20T20:48:19.416Z,76.58
2022-11-20T20:50:55.790Z,76.37
2022-11-20T20:53:22.413Z,76.65
2022-11-20T20:55:59.000Z,76.24
2022-11-20T20:58:25.584Z,77.16
2022-11-20T21:00:52.314Z,76.44
2022-11-20T21:03:19.100Z,75.84
2022-11-20T21:05:45.787Z,76.40
2022-11-20T21:08:22.490Z,75.98
2022-11-20T21:10:49.431Z,75.74
2022-11-20T21:13:16.001Z,75.92
2022-11-20T21:15:42.847Z,75.98
2022-11-20T21:18:09.370Z,75.97
2022-11-20T21:20:54.616Z,75.92
2022-11-20T21:23:21.156Z,75.95
2022-11-20T21:25:47.812Z,76.21
2022-11-20T21:28:18.241Z,75.95
2022-11-20T21:30:45.134Z,75.73
2022-11-20T21:33:11.769Z,75.99
2022-11-20T21:35:38.345Z,76.09
2022-11-20T21:38:05.115Z,75.59
2022-11-20T21:40:32.136Z,75.73
2022-11-20T21:42:58.679Z,75.71
2022-11-20T21:45:25.239Z,76.14
2022-11-20T21:47:51.894Z,75.93
2022-11-20T21:50:18.748Z,75.95
2022-11-20T21:52:45.601Z,76.13
2022-11-20T21:55:12.847Z,74.88
2022-11-20T21:57:39.356Z,76.03
2022-11-20T22:00:06.676Z,75.32
2022-11-20T22:02:38.351Z,75.53
2022-11-20T22:05:05.073Z,75.54
2022-11-20T22:07:31.714Z,75.47
2022-11-20T22:09:58.297Z,75.15
2022-11-20T22:12:25.557Z,75.47
2022-11-20T22:14:52.112Z,75.60
2022-11-20T22:17:38.570Z,75.54
2022-11-20T22:20:05.373Z,75.60
2022-11-20T22:22:31.956Z,75.43
2022-11-20T22:24:58.490Z,75.83
2022-11-20T22:27:25.001Z,75.58
2022-11-20T22:29:51.597Z,75.84
2022-11-20T22:32:18.312Z,75.51
2022-11-20T22:34:44.848Z,75.54
2022-11-20T22:37:11.925Z,75.86
2022-11-20T22:39:38.550Z,76.11
2022-11-20T22:42:05.083Z,76.53
2022-11-20T22:44:31.738Z,76.06
2022-11-20T22:46:58.283Z,76.42
2022-11-20T22:49:25.008Z,76.88
2022-11-20T22:51:51.668Z,76.63
2022-11-20T22:54:18.183Z,76.99
2022-11-20T22:56:45.148Z,76.77
2022-11-20T22:59:11.727Z,76.80
2022-11-20T23:01:38.491Z,77.18
2022-11-20T23:04:06.104Z,76.52
2022-11-20T23:06:35.394Z,76.77
2022-11-20T23:09:02.539Z,75.93
2022-11-20T23:11:29.510Z,76.99
2022-11-20T23:14:06.683Z,77.15
2022-11-20T23:16:33.261Z,76.68
2022-11-20T23:19:01.191Z,75.80
2022-11-20T23:21:27.893Z,76.59
2022-11-20T23:23:55.178Z,75.70
2022-11-20T23:26:23.699Z,75.41
2022-11-20T23:28:50.277Z,74.86
2022-11-20T23:31:17.021Z,75.35
2022-11-20T23:33:44.299Z,76.06
2022-11-20T23:36:11.554Z,76.06
2022-11-20T23:38:38.822Z,76.05
2022-11-20T23:41:05.359Z,76.11
2022-11-20T23:43:31.999Z,75.59
2022-11-20T23:45:59.091Z,75.97
2022-11-20T23:48:29.299Z,75.63
2022-11-20T23:50:56.000Z,75.61
2022-11-20T23:53:22.841Z,75.72
2022-11-20T23:55:50.774Z,75.46
2022-11-20T23:58:17.408Z,75.90
